sensor_id;sensor_type;location;lat;lon;timestamp;pressure;altitude;pressure_sealevel;temperature;humidity
65557;BME280;52200;53.490;14.376;2022-12-10T00:01:34;100908.78;;;-0.65;78.00
65557;BME280;52200;53.490;14.376;2022-12-10T00:04:00;100907.41;;;-0.90;77.80
65557;BME280;52200;53.490;14.376;2022-12-10T00:06:28;100903.94;;;-0.96;77.13
65557;BME280;52200;53.490;14.376;2022-12-10T00:08:54;100905.72;;;-0.91;77.23
65557;BME280;52200;53.490;14.376;2022-12-10T00:11:21;100909.38;;;-0.76;77.96
65557;BME280;52200;53.490;14.376;2022-12-10T00:13:47;100908.59;;;-0.74;77.55
65557;BME280;52200;53.490;14.376;2022-12-10T00:16:15;100907.88;;;-0.68;77.86
65557;BME280;52200;53.490;14.376;2022-12-10T00:18:41;100908.22;;;-0.89;77.91
65557;BME280;52200;53.490;14.376;2022-12-10T00:21:12;100904.03;;;-0.92;76.05
65557;BME280;52200;53.490;14.376;2022-12-10T00:23:38;100916.47;;;-0.93;75.11
65557;BME280;52200;53.490;14.376;2022-12-10T00:26:10;100917.63;;;-0.79;75.48
65557;BME280;52200;53.490;14.376;2022-12-10T00:28:37;100921.69;;;-0.84;74.38
65557;BME280;52200;53.490;14.376;2022-12-10T00:31:04;100915.69;;;-0.91;74.58
65557;BME280;52200;53.490;14.376;2022-12-10T00:33:30;100916.72;;;-0.83;74.64
65557;BME280;52200;53.490;14.376;2022-12-10T00:35:56;100915.38;;;-1.05;75.07
65557;BME280;52200;53.490;14.376;2022-12-10T00:38:21;100914.38;;;-0.76;76.90
65557;BME280;52200;53.490;14.376;2022-12-10T00:40:47;100919.47;;;-0.72;76.83
65557;BME280;52200;53.490;14.376;2022-12-10T00:43:12;100917.38;;;-0.53;75.92
65557;BME280;52200;53.490;14.376;2022-12-10T00:45:37;100922.94;;;-0.65;75.20
65557;BME280;52200;53.490;14.376;2022-12-10T00:48:03;100919.31;;;-0.40;74.05
65557;BME280;52200;53.490;14.376;2022-12-10T00:50:28;100915.28;;;-0.35;72.59
65557;BME280;52200;53.490;14.376;2022-12-10T00:52:54;100920.69;;;-0.54;72.72
65557;BME280;52200;53.490;14.376;2022-12-10T00:55:19;100921.75;;;-0.81;74.67
65557;BME280;52200;53.490;14.376;2022-12-10T00:57:45;100915.69;;;-0.54;74.23
65557;BME280;52200;53.490;14.376;2022-12-10T01:00:11;100922.50;;;-0.47;74.01
65557;BME280;52200;53.490;14.376;2022-12-10T01:02:36;100921.06;;;-0.36;72.46
65557;BME280;52200;53.490;14.376;2022-12-10T01:05:02;100927.56;;;-0.42;72.92
65557;BME280;52200;53.490;14.376;2022-12-10T01:07:28;100915.56;;;-0.60;73.48
65557;BME280;52200;53.490;14.376;2022-12-10T01:09:53;100928.81;;;-0.63;75.03
65557;BME280;52200;53.490;14.376;2022-12-10T01:12:18;100922.78;;;-0.35;74.65
65557;BME280;52200;53.490;14.376;2022-12-10T01:14:44;100924.00;;;-0.14;73.39
65557;BME280;52200;53.490;14.376;2022-12-10T01:17:09;100926.59;;;-0.11;72.77
65557;BME280;52200;53.490;14.376;2022-12-10T01:19:35;100927.16;;;-0.23;73.04
65557;BME280;52200;53.490;14.376;2022-12-10T01:22:01;100923.91;;;-0.58;74.73
65557;BME280;52200;53.490;14.376;2022-12-10T01:24:28;100927.41;;;-0.50;74.22
65557;BME280;52200;53.490;14.376;2022-12-10T01:26:54;100926.13;;;-0.71;73.77
65557;BME280;52200;53.490;14.376;2022-12-10T01:29:23;100935.28;;;-0.70;72.83
65557;BME280;52200;53.490;14.376;2022-12-10T01:31:53;100935.53;;;-0.59;72.50
65557;BME280;52200;53.490;14.376;2022-12-10T01:34:18;100930.00;;;-0.47;72.90
65557;BME280;52200;53.490;14.376;2022-12-10T01:36:49;100925.84;;;-0.45;73.14
65557;BME280;52200;53.490;14.376;2022-12-10T01:39:16;100928.59;;;-0.71;72.96
65557;BME280;52200;53.490;14.376;2022-12-10T01:41:50;100932.63;;;-0.41;73.49
65557;BME280;52200;53.490;14.376;2022-12-10T01:46:44;100934.38;;;-0.37;74.12
65557;BME280;52200;53.490;14.376;2022-12-10T01:49:12;100939.97;;;-0.47;74.64
65557;BME280;52200;53.490;14.376;2022-12-10T01:51:41;100937.53;;;-0.81;75.33
65557;BME280;52200;53.490;14.376;2022-12-10T01:54:10;100936.97;;;-0.69;74.32
65557;BME280;52200;53.490;14.376;2022-12-10T01:56:40;100933.06;;;-0.59;73.56
65557;BME280;52200;53.490;14.376;2022-12-10T01:59:08;100940.66;;;-0.54;72.22
65557;BME280;52200;53.490;14.376;2022-12-10T02:09:58;100930.94;;;-0.78;72.23
65557;BME280;52200;53.490;14.376;2022-12-10T02:12:48;100935.66;;;-0.89;72.83
65557;BME280;52200;53.490;14.376;2022-12-10T02:15:18;100938.69;;;-1.03;73.81
65557;BME280;52200;53.490;14.376;2022-12-10T02:20:22;100933.88;;;-0.58;72.58
65557;BME280;52200;53.490;14.376;2022-12-10T02:22:53;100927.91;;;-0.67;71.99
65557;BME280;52200;53.490;14.376;2022-12-10T02:25:23;100937.06;;;-0.66;72.82
65557;BME280;52200;53.490;14.376;2022-12-10T02:30:30;100932.66;;;-0.76;74.12
65557;BME280;52200;53.490;14.376;2022-12-10T02:32:58;100937.22;;;-0.59;72.96
65557;BME280;52200;53.490;14.376;2022-12-10T02:35:28;100940.00;;;-0.82;73.98
65557;BME280;52200;53.490;14.376;2022-12-10T02:38:00;100940.88;;;-0.80;73.08
65557;BME280;52200;53.490;14.376;2022-12-10T02:40:31;100944.63;;;-0.98;72.99
65557;BME280;52200;53.490;14.376;2022-12-10T02:42:58;100939.50;;;-0.67;72.62
65557;BME280;52200;53.490;14.376;2022-12-10T02:45:26;100938.81;;;-0.61;72.45
65557;BME280;52200;53.490;14.376;2022-12-10T02:47:56;100934.22;;;-0.43;72.42
65557;BME280;52200;53.490;14.376;2022-12-10T02:50:23;100940.41;;;-0.63;72.61
65557;BME280;52200;53.490;14.376;2022-12-10T02:52:49;100938.59;;;-0.71;72.92
65557;BME280;52200;53.490;14.376;2022-12-10T02:55:15;100938.84;;;-0.60;73.02
65557;BME280;52200;53.490;14.376;2022-12-10T03:00:23;100939.47;;;-0.32;72.31
65557;BME280;52200;53.490;14.376;2022-12-10T03:05:33;100948.56;;;-0.34;71.94
65557;BME280;52200;53.490;14.376;2022-12-10T03:11:11;100935.94;;;-0.77;72.22
65557;BME280;52200;53.490;14.376;2022-12-10T03:14:00;100932.41;;;-0.87;72.90
65557;BME280;52200;53.490;14.376;2022-12-10T03:16:35;100937.72;;;-0.73;72.39
65557;BME280;52200;53.490;14.376;2022-12-10T03:19:04;100939.78;;;-0.91;73.02
65557;BME280;52200;53.490;14.376;2022-12-10T03:21:32;100942.97;;;-0.97;73.38
65557;BME280;52200;53.490;14.376;2022-12-10T03:24:00;100940.28;;;-0.70;72.28
65557;BME280;52200;53.490;14.376;2022-12-10T03:26:26;100937.88;;;-0.67;72.63
65557;BME280;52200;53.490;14.376;2022-12-10T03:28:58;100946.44;;;-0.55;73.19
65557;BME280;52200;53.490;14.376;2022-12-10T03:31:28;100941.06;;;-0.72;72.80
65557;BME280;52200;53.490;14.376;2022-12-10T03:33:55;100938.38;;;-0.80;73.87
65557;BME280;52200;53.490;14.376;2022-12-10T03:36:21;100934.59;;;-0.64;73.21
65557;BME280;52200;53.490;14.376;2022-12-10T03:38:48;100929.22;;;-0.81;73.03
65557;BME280;52200;53.490;14.376;2022-12-10T03:41:14;100929.03;;;-0.90;74.10
65557;BME280;52200;53.490;14.376;2022-12-10T03:43:54;100929.34;;;-0.75;73.83
65557;BME280;52200;53.490;14.376;2022-12-10T03:46:20;100943.38;;;-0.80;73.23
65557;BME280;52200;53.490;14.376;2022-12-10T03:48:46;100940.41;;;-1.00;74.04
65557;BME280;52200;53.490;14.376;2022-12-10T03:51:12;100934.72;;;-0.94;73.88
65557;BME280;52200;53.490;14.376;2022-12-10T03:53:37;100942.28;;;-0.91;73.67
65557;BME280;52200;53.490;14.376;2022-12-10T03:56:03;100942.56;;;-0.79;73.49
65557;BME280;52200;53.490;14.376;2022-12-10T03:58:28;100939.38;;;-1.08;74.62
65557;BME280;52200;53.490;14.376;2022-12-10T04:00:54;100944.81;;;-0.90;74.32
65557;BME280;52200;53.490;14.376;2022-12-10T04:03:19;100937.38;;;-0.87;74.78
65557;BME280;52200;53.490;14.376;2022-12-10T04:05:45;100931.88;;;-1.10;75.07
65557;BME280;52200;53.490;14.376;2022-12-10T04:08:10;100930.69;;;-1.24;75.81
65557;BME280;52200;53.490;14.376;2022-12-10T04:10:37;100928.41;;;-0.80;74.36
65557;BME280;52200;53.490;14.376;2022-12-10T04:13:03;100940.59;;;-0.92;74.60
65557;BME280;52200;53.490;14.376;2022-12-10T04:15:47;100933.31;;;-0.83;74.20
65557;BME280;52200;53.490;14.376;2022-12-10T04:18:31;100927.38;;;-0.88;74.25
65557;BME280;52200;53.490;14.376;2022-12-10T04:20:56;100929.59;;;-1.01;74.87
65557;BME280;52200;53.490;14.376;2022-12-10T04:23:40;100929.44;;;-1.07;74.67
65557;BME280;52200;53.490;14.376;2022-12-10T04:26:24;100927.53;;;-1.17;75.23
65557;BME280;52200;53.490;14.376;2022-12-10T04:29:08;100922.13;;;-0.99;75.58
65557;BME280;52200;53.490;14.376;2022-12-10T04:31:34;100927.63;;;-0.77;74.82
65557;BME280;52200;53.490;14.376;2022-12-10T04:34:00;100919.25;;;-0.81;74.73
65557;BME280;52200;53.490;14.376;2022-12-10T04:36:25;100926.44;;;-0.93;75.86
65557;BME280;52200;53.490;14.376;2022-12-10T04:38:50;100930.47;;;-0.99;75.90
65557;BME280;52200;53.490;14.376;2022-12-10T04:41:16;100926.88;;;-0.75;75.01
65557;BME280;52200;53.490;14.376;2022-12-10T04:43:42;100930.53;;;-0.60;75.39
65557;BME280;52200;53.490;14.376;2022-12-10T04:46:08;100935.50;;;-0.60;74.36
65557;BME280;52200;53.490;14.376;2022-12-10T04:48:34;100934.66;;;-0.61;74.71
65557;BME280;52200;53.490;14.376;2022-12-10T04:50:59;100931.09;;;-0.71;74.74
65557;BME280;52200;53.490;14.376;2022-12-10T04:53:25;100930.31;;;-0.70;75.19
65557;BME280;52200;53.490;14.376;2022-12-10T04:55:50;100924.47;;;-0.70;75.58
65557;BME280;52200;53.490;14.376;2022-12-10T04:58:16;100928.41;;;-0.80;75.46
65557;BME280;52200;53.490;14.376;2022-12-10T05:00:41;100923.75;;;-0.66;74.63
65557;BME280;52200;53.490;14.376;2022-12-10T05:03:06;100930.88;;;-0.82;75.16
65557;BME280;52200;53.490;14.376;2022-12-10T05:05:34;100929.81;;;-0.91;75.44
65557;BME280;52200;53.490;14.376;2022-12-10T05:07:59;100929.03;;;-0.89;74.90
65557;BME280;52200;53.490;14.376;2022-12-10T05:10:25;100932.56;;;-1.16;75.75
65557;BME280;52200;53.490;14.376;2022-12-10T05:12:50;100939.59;;;-0.99;74.98
65557;BME280;52200;53.490;14.376;2022-12-10T05:15:16;100929.59;;;-1.01;75.77
65557;BME280;52200;53.490;14.376;2022-12-10T05:17:41;100927.94;;;-1.34;76.23
65557;BME280;52200;53.490;14.376;2022-12-10T05:20:07;100932.38;;;-1.23;76.40
65557;BME280;52200;53.490;14.376;2022-12-10T05:22:33;100934.16;;;-1.18;76.09
65557;BME280;52200;53.490;14.376;2022-12-10T05:25:17;100930.44;;;-1.34;76.45
65557;BME280;52200;53.490;14.376;2022-12-10T05:27:42;100935.09;;;-1.46;76.90
65557;BME280;52200;53.490;14.376;2022-12-10T05:30:08;100931.59;;;-1.21;77.08
65557;BME280;52200;53.490;14.376;2022-12-10T05:32:35;100938.09;;;-1.27;76.94
65557;BME280;52200;53.490;14.376;2022-12-10T05:35:00;100934.06;;;-1.22;76.84
65557;BME280;52200;53.490;14.376;2022-12-10T05:37:27;100941.72;;;-1.15;76.57
65557;BME280;52200;53.490;14.376;2022-12-10T05:39:53;100941.25;;;-1.00;76.81
65557;BME280;52200;53.490;14.376;2022-12-10T05:42:19;100941.41;;;-1.27;76.94
65557;BME280;52200;53.490;14.376;2022-12-10T05:44:44;100943.16;;;-1.23;76.39
65557;BME280;52200;53.490;14.376;2022-12-10T05:47:10;100955.44;;;-1.31;77.60
65557;BME280;52200;53.490;14.376;2022-12-10T05:49:35;100950.72;;;-1.21;77.18
65557;BME280;52200;53.490;14.376;2022-12-10T05:52:01;100947.50;;;-1.16;76.57
65557;BME280;52200;53.490;14.376;2022-12-10T05:54:26;100942.91;;;-1.66;78.36
65557;BME280;52200;53.490;14.376;2022-12-10T05:56:52;100946.53;;;-1.22;77.81
65557;BME280;52200;53.490;14.376;2022-12-10T05:59:18;100949.09;;;-1.18;76.71
65557;BME280;52200;53.490;14.376;2022-12-10T06:01:44;100947.00;;;-1.36;77.43
65557;BME280;52200;53.490;14.376;2022-12-10T06:04:10;100949.72;;;-1.26;77.73
65557;BME280;52200;53.490;14.376;2022-12-10T06:06:37;100948.56;;;-1.07;76.61
65557;BME280;52200;53.490;14.376;2022-12-10T06:09:04;100952.97;;;-0.95;75.86
65557;BME280;52200;53.490;14.376;2022-12-10T06:11:30;100944.53;;;-1.01;76.41
65557;BME280;52200;53.490;14.376;2022-12-10T06:13:56;100949.41;;;-1.05;75.45
65557;BME280;52200;53.490;14.376;2022-12-10T06:16:23;100947.53;;;-1.14;75.89
65557;BME280;52200;53.490;14.376;2022-12-10T06:18:49;100947.84;;;-1.02;75.83
65557;BME280;52200;53.490;14.376;2022-12-10T06:21:16;100951.06;;;-1.06;76.59
65557;BME280;52200;53.490;14.376;2022-12-10T06:23:42;100944.63;;;-1.63;77.14
65557;BME280;52200;53.490;14.376;2022-12-10T06:26:14;100944.81;;;-1.25;77.42
65557;BME280;52200;53.490;14.376;2022-12-10T06:28:40;100946.03;;;-1.09;76.18
65557;BME280;52200;53.490;14.376;2022-12-10T06:31:06;100943.69;;;-1.03;76.07
65557;BME280;52200;53.490;14.376;2022-12-10T06:33:32;100942.69;;;-1.41;76.56
65557;BME280;52200;53.490;14.376;2022-12-10T06:35:57;100942.50;;;-1.17;76.86
65557;BME280;52200;53.490;14.376;2022-12-10T06:38:23;100937.00;;;-1.69;77.54
65557;BME280;52200;53.490;14.376;2022-12-10T06:40:49;100948.59;;;-1.38;78.03
65557;BME280;52200;53.490;14.376;2022-12-10T06:43:15;100948.53;;;-1.41;77.10
65557;BME280;52200;53.490;14.376;2022-12-10T06:45:41;100944.84;;;-1.55;77.59
65557;BME280;52200;53.490;14.376;2022-12-10T06:48:07;100947.22;;;-1.58;77.26
65557;BME280;52200;53.490;14.376;2022-12-10T06:50:33;100957.75;;;-1.69;78.48
65557;BME280;52200;53.490;14.376;2022-12-10T06:52:59;100965.81;;;-1.47;77.79
65557;BME280;52200;53.490;14.376;2022-12-10T06:55:25;100967.00;;;-1.33;77.46
65557;BME280;52200;53.490;14.376;2022-12-10T06:57:51;100971.50;;;-1.19;77.25
65557;BME280;52200;53.490;14.376;2022-12-10T07:00:17;100966.84;;;-1.39;77.71
65557;BME280;52200;53.490;14.376;2022-12-10T07:02:43;100969.16;;;-1.47;77.30
65557;BME280;52200;53.490;14.376;2022-12-10T07:05:08;100969.97;;;-1.46;77.88
65557;BME280;52200;53.490;14.376;2022-12-10T07:07:35;100979.59;;;-1.28;77.78
65557;BME280;52200;53.490;14.376;2022-12-10T07:10:01;100979.16;;;-1.45;78.19
65557;BME280;52200;53.490;14.376;2022-12-10T07:12:27;100986.34;;;-1.24;78.54
65557;BME280;52200;53.490;14.376;2022-12-10T07:14:53;100981.09;;;-1.03;77.60
65557;BME280;52200;53.490;14.376;2022-12-10T07:17:18;100985.91;;;-1.09;77.45
65557;BME280;52200;53.490;14.376;2022-12-10T07:19:44;100984.91;;;-1.48;78.58
65557;BME280;52200;53.490;14.376;2022-12-10T07:22:09;100996.47;;;-1.18;78.28
65557;BME280;52200;53.490;14.376;2022-12-10T07:24:35;100998.88;;;-0.89;77.20
65557;BME280;52200;53.490;14.376;2022-12-10T07:27:00;100996.19;;;-0.96;77.11
65557;BME280;52200;53.490;14.376;2022-12-10T07:29:26;100994.06;;;-1.15;77.96
65557;BME280;52200;53.490;14.376;2022-12-10T07:31:51;101006.00;;;-1.03;77.95
65557;BME280;52200;53.490;14.376;2022-12-10T07:34:17;101001.50;;;-0.84;77.42
65557;BME280;52200;53.490;14.376;2022-12-10T07:36:43;100995.78;;;-0.78;76.88
65557;BME280;52200;53.490;14.376;2022-12-10T07:39:09;100998.41;;;-1.39;78.67
65557;BME280;52200;53.490;14.376;2022-12-10T07:41:35;100996.63;;;-1.11;78.23
65557;BME280;52200;53.490;14.376;2022-12-10T07:44:05;100994.66;;;-0.91;77.21
65557;BME280;52200;53.490;14.376;2022-12-10T07:46:32;101006.53;;;-0.81;76.42
65557;BME280;52200;53.490;14.376;2022-12-10T07:49:02;101008.44;;;-0.71;76.39
65557;BME280;52200;53.490;14.376;2022-12-10T07:51:28;101001.88;;;-1.34;77.71
65557;BME280;52200;53.490;14.376;2022-12-10T07:53:54;100996.41;;;-0.87;77.87
65557;BME280;52200;53.490;14.376;2022-12-10T07:56:21;101005.00;;;-0.76;77.00
65557;BME280;52200;53.490;14.376;2022-12-10T07:58:47;101013.56;;;-0.65;76.80
65557;BME280;52200;53.490;14.376;2022-12-10T08:01:15;101008.66;;;-0.61;76.73
65557;BME280;52200;53.490;14.376;2022-12-10T08:03:42;101007.41;;;-0.44;76.68
65557;BME280;52200;53.490;14.376;2022-12-10T08:06:10;101010.69;;;-0.46;77.02
65557;BME280;52200;53.490;14.376;2022-12-10T08:08:37;101015.56;;;-0.51;75.91
65557;BME280;52200;53.490;14.376;2022-12-10T08:11:04;101021.41;;;-0.51;76.25
65557;BME280;52200;53.490;14.376;2022-12-10T08:13:29;101025.38;;;-0.57;77.19
65557;BME280;52200;53.490;14.376;2022-12-10T08:16:07;101029.22;;;-0.37;75.96
65557;BME280;52200;53.490;14.376;2022-12-10T08:18:34;101032.72;;;-0.28;75.22
65557;BME280;52200;53.490;14.376;2022-12-10T08:21:04;101035.66;;;-0.08;75.23
65557;BME280;52200;53.490;14.376;2022-12-10T08:23:30;101043.97;;;-0.09;74.80
65557;BME280;52200;53.490;14.376;2022-12-10T08:25:56;101043.81;;;-0.15;74.08
65557;BME280;52200;53.490;14.376;2022-12-10T08:28:21;101043.38;;;-0.36;74.63
65557;BME280;52200;53.490;14.376;2022-12-10T08:30:47;101039.63;;;-0.18;73.33
65557;BME280;52200;53.490;14.376;2022-12-10T08:33:13;101040.75;;;-0.42;74.70
65557;BME280;52200;53.490;14.376;2022-12-10T08:35:38;101046.53;;;-0.78;75.47
65557;BME280;52200;53.490;14.376;2022-12-10T08:38:04;101045.84;;;-0.71;74.98
65557;BME280;52200;53.490;14.376;2022-12-10T08:40:29;101046.88;;;-0.62;75.63
65557;BME280;52200;53.490;14.376;2022-12-10T08:42:55;101038.97;;;-0.46;75.69
65557;BME280;52200;53.490;14.376;2022-12-10T08:45:20;101043.09;;;-0.48;75.99
65557;BME280;52200;53.490;14.376;2022-12-10T08:47:45;101044.31;;;-0.30;76.15
65557;BME280;52200;53.490;14.376;2022-12-10T08:50:11;101044.78;;;-0.09;73.95
65557;BME280;52200;53.490;14.376;2022-12-10T08:52:36;101049.31;;;-0.66;75.84
65557;BME280;52200;53.490;14.376;2022-12-10T08:55:03;101042.84;;;-0.22;74.99
65557;BME280;52200;53.490;14.376;2022-12-10T08:57:28;101047.00;;;-0.21;74.32
65557;BME280;52200;53.490;14.376;2022-12-10T08:59:54;101049.50;;;-0.21;73.85
65557;BME280;52200;53.490;14.376;2022-12-10T09:02:19;101057.84;;;-0.56;74.61
65557;BME280;52200;53.490;14.376;2022-12-10T09:04:44;101053.91;;;-0.47;74.99
65557;BME280;52200;53.490;14.376;2022-12-10T09:07:12;101054.88;;;-0.06;74.36
65557;BME280;52200;53.490;14.376;2022-12-10T09:09:37;101054.34;;;0.09;74.18
65557;BME280;52200;53.490;14.376;2022-12-10T09:12:03;101051.16;;;-0.23;73.64
65557;BME280;52200;53.490;14.376;2022-12-10T09:14:28;101041.50;;;-0.08;73.61
65557;BME280;52200;53.490;14.376;2022-12-10T09:16:57;101052.88;;;-0.21;74.24
65557;BME280;52200;53.490;14.376;2022-12-10T09:19:22;101051.75;;;0.05;73.52
65557;BME280;52200;53.490;14.376;2022-12-10T09:21:48;101045.75;;;-0.04;73.15
65557;BME280;52200;53.490;14.376;2022-12-10T09:24:13;101059.69;;;0.25;73.58
65557;BME280;52200;53.490;14.376;2022-12-10T09:26:39;101052.34;;;0.32;72.47
65557;BME280;52200;53.490;14.376;2022-12-10T09:29:04;101056.69;;;0.41;72.41
65557;BME280;52200;53.490;14.376;2022-12-10T09:31:30;101053.63;;;0.55;72.46
65557;BME280;52200;53.490;14.376;2022-12-10T09:33:55;101055.25;;;0.53;71.64
65557;BME280;52200;53.490;14.376;2022-12-10T09:36:21;101056.03;;;0.50;71.50
65557;BME280;52200;53.490;14.376;2022-12-10T09:38:48;101054.47;;;0.55;71.44
65557;BME280;52200;53.490;14.376;2022-12-10T09:47:01;101054.63;;;0.23;71.59
65557;BME280;52200;53.490;14.376;2022-12-10T09:49:53;101046.44;;;0.29;70.85
65557;BME280;52200;53.490;14.376;2022-12-10T09:52:27;101045.94;;;0.45;70.29
65557;BME280;52200;53.490;14.376;2022-12-10T09:55:00;101044.66;;;0.64;69.95
65557;BME280;52200;53.490;14.376;2022-12-10T09:57:31;101053.00;;;0.65;70.90
65557;BME280;52200;53.490;14.376;2022-12-10T10:00:54;101047.59;;;0.45;70.70
65557;BME280;52200;53.490;14.376;2022-12-10T10:02:56;101047.03;;;0.58;70.70
65557;BME280;52200;53.490;14.376;2022-12-10T10:05:27;101049.84;;;0.75;70.91
65557;BME280;52200;53.490;14.376;2022-12-10T10:07:56;101052.31;;;0.74;70.93
65557;BME280;52200;53.490;14.376;2022-12-10T10:10:27;101040.28;;;0.13;70.32
65557;BME280;52200;53.490;14.376;2022-12-10T10:13:00;101037.97;;;0.22;71.61
65557;BME280;52200;53.490;14.376;2022-12-10T10:15:34;101036.63;;;0.38;71.01
65557;BME280;52200;53.490;14.376;2022-12-10T10:18:16;101038.28;;;0.38;71.20
65557;BME280;52200;53.490;14.376;2022-12-10T10:20:43;101042.59;;;0.45;70.59
65557;BME280;52200;53.490;14.376;2022-12-10T10:23:13;101043.91;;;0.27;71.22
65557;BME280;52200;53.490;14.376;2022-12-10T10:25:39;101042.47;;;0.39;71.04
65557;BME280;52200;53.490;14.376;2022-12-10T10:28:05;101047.34;;;0.31;70.97
65557;BME280;52200;53.490;14.376;2022-12-10T10:30:30;101041.56;;;0.35;70.39
65557;BME280;52200;53.490;14.376;2022-12-10T10:32:57;101038.06;;;0.27;70.25
65557;BME280;52200;53.490;14.376;2022-12-10T10:35:31;101046.72;;;0.43;70.73
65557;BME280;52200;53.490;14.376;2022-12-10T10:38:05;101038.84;;;0.24;70.45
65557;BME280;52200;53.490;14.376;2022-12-10T10:43:03;101034.97;;;0.39;70.51
65557;BME280;52200;53.490;14.376;2022-12-10T10:45:51;101033.81;;;0.23;70.32
65557;BME280;52200;53.490;14.376;2022-12-10T10:48:20;101036.50;;;0.32;71.63
65557;BME280;52200;53.490;14.376;2022-12-10T10:50:47;101044.66;;;0.64;71.21
65557;BME280;52200;53.490;14.376;2022-12-10T10:53:52;101037.38;;;0.34;70.32
65557;BME280;52200;53.490;14.376;2022-12-10T10:56:29;101036.38;;;0.26;70.27
65557;BME280;52200;53.490;14.376;2022-12-10T11:01:42;101039.09;;;0.37;69.81
65557;BME280;52200;53.490;14.376;2022-12-10T11:04:08;101040.47;;;0.63;68.78
65557;BME280;52200;53.490;14.376;2022-12-10T11:06:34;101038.81;;;0.66;69.79
65557;BME280;52200;53.490;14.376;2022-12-10T11:09:00;101036.19;;;0.58;69.07
65557;BME280;52200;53.490;14.376;2022-12-10T11:11:35;101031.72;;;0.43;69.00
65557;BME280;52200;53.490;14.376;2022-12-10T11:14:26;101033.94;;;0.72;68.66
65557;BME280;52200;53.490;14.376;2022-12-10T11:17:03;101032.50;;;0.39;68.83
65557;BME280;52200;53.490;14.376;2022-12-10T11:20:12;101030.53;;;0.25;68.32
65557;BME280;52200;53.490;14.376;2022-12-10T11:22:48;101027.94;;;0.21;68.63
65557;BME280;52200;53.490;14.376;2022-12-10T11:25:14;101024.09;;;0.37;68.69
65557;BME280;52200;53.490;14.376;2022-12-10T11:30:15;101024.75;;;0.26;68.51
65557;BME280;52200;53.490;14.376;2022-12-10T11:40:58;101026.59;;;0.79;67.49
65557;BME280;52200;53.490;14.376;2022-12-10T11:43:53;101021.88;;;0.51;68.03
65557;BME280;52200;53.490;14.376;2022-12-10T12:00:23;101017.25;;;-0.13;68.40
65557;BME280;52200;53.490;14.376;2022-12-10T12:16:30;101028.34;;;-0.01;66.87
65557;BME280;52200;53.490;14.376;2022-12-10T12:19:17;101017.66;;;0.05;66.80
65557;BME280;52200;53.490;14.376;2022-12-10T12:21:47;101021.09;;;0.12;66.15
65557;BME280;52200;53.490;14.376;2022-12-10T12:26:48;101030.03;;;0.01;65.70
65557;BME280;52200;53.490;14.376;2022-12-10T12:32:01;101028.31;;;-0.02;65.55
65557;BME280;52200;53.490;14.376;2022-12-10T12:35:10;101021.38;;;-0.14;65.44
65557;BME280;52200;53.490;14.376;2022-12-10T12:37:58;101035.94;;;-0.33;66.32
65557;BME280;52200;53.490;14.376;2022-12-10T12:40:41;101029.88;;;-0.44;66.31
65557;BME280;52200;53.490;14.376;2022-12-10T12:43:46;101032.66;;;-0.31;65.51
65557;BME280;52200;53.490;14.376;2022-12-10T12:46:26;101038.16;;;-0.45;65.02
65557;BME280;52200;53.490;14.376;2022-12-10T12:48:56;101033.16;;;-0.10;64.45
65557;BME280;52200;53.490;14.376;2022-12-10T12:51:41;101028.28;;;-0.04;65.14
65557;BME280;52200;53.490;14.376;2022-12-10T12:54:13;101023.47;;;0.06;64.37
65557;BME280;52200;53.490;14.376;2022-12-10T12:59:31;101011.41;;;-0.14;64.44
65557;BME280;52200;53.490;14.376;2022-12-10T13:04:50;101004.06;;;0.34;63.49
65557;BME280;52200;53.490;14.376;2022-12-10T13:10:07;100998.28;;;0.36;63.03
65557;BME280;52200;53.490;14.376;2022-12-10T13:21:28;101007.19;;;0.23;62.71
65557;BME280;52200;53.490;14.376;2022-12-10T13:24:07;101007.13;;;0.20;63.18
65557;BME280;52200;53.490;14.376;2022-12-10T13:26:32;101009.91;;;-0.06;62.95
65557;BME280;52200;53.490;14.376;2022-12-10T13:29:42;101010.09;;;0.04;62.77
65557;BME280;52200;53.490;14.376;2022-12-10T13:42:35;101021.78;;;-0.34;64.92
65557;BME280;52200;53.490;14.376;2022-12-10T13:47:55;101026.31;;;-0.17;64.65
65557;BME280;52200;53.490;14.376;2022-12-10T13:53:37;101029.34;;;-0.30;65.90
65557;BME280;52200;53.490;14.376;2022-12-10T13:56:48;101035.16;;;-0.30;64.99
65557;BME280;52200;53.490;14.376;2022-12-10T13:59:41;101029.34;;;-0.30;65.16
65557;BME280;52200;53.490;14.376;2022-12-10T14:07:39;101034.00;;;-0.08;65.42
65557;BME280;52200;53.490;14.376;2022-12-10T14:10:13;101041.47;;;-0.09;66.11
65557;BME280;52200;53.490;14.376;2022-12-10T14:12:41;101039.78;;;-0.10;65.49
65557;BME280;52200;53.490;14.376;2022-12-10T14:17:43;101044.38;;;-0.27;66.40
65557;BME280;52200;53.490;14.376;2022-12-10T14:20:19;101043.91;;;-0.49;67.14
65557;BME280;52200;53.490;14.376;2022-12-10T14:22:51;101046.81;;;-0.30;66.72
65557;BME280;52200;53.490;14.376;2022-12-10T14:25:22;101051.28;;;-0.17;66.09
65557;BME280;52200;53.490;14.376;2022-12-10T14:27:50;101037.78;;;-0.25;66.88
65557;BME280;52200;53.490;14.376;2022-12-10T14:30:19;101049.47;;;-0.24;65.96
65557;BME280;52200;53.490;14.376;2022-12-10T14:32:46;101037.78;;;-0.25;66.86
65557;BME280;52200;53.490;14.376;2022-12-10T14:35:20;101047.47;;;-0.38;66.37
65557;BME280;52200;53.490;14.376;2022-12-10T14:37:48;101046.81;;;-0.30;66.50
65557;BME280;52200;53.490;14.376;2022-12-10T14:40:21;101039.47;;;-0.24;66.77
65557;BME280;52200;53.490;14.376;2022-12-10T14:42:48;101029.38;;;-0.29;66.47
65557;BME280;52200;53.490;14.376;2022-12-10T14:45:15;101040.75;;;-0.42;66.69
65557;BME280;52200;53.490;14.376;2022-12-10T14:47:41;101038.59;;;-0.61;67.81
65557;BME280;52200;53.490;14.376;2022-12-10T14:50:14;101039.91;;;-0.76;68.22
65557;BME280;52200;53.490;14.376;2022-12-10T14:52:43;101042.50;;;-1.05;68.40
65557;BME280;52200;53.490;14.376;2022-12-10T14:55:14;101038.31;;;-1.06;68.98